Adak, Alaska
Current Conditions -  °F | °C
As of 4:56 AM on Tuesday 21 Oct 2014 (Local Time) from PADK Reporting Station
Broken Clouds Broken Clouds  
Wind Chill: 34°   Ceiling: 3600
Heat Index: 43°   Visibility: 10mi
Dew Point: 30°   Wind: 22mph
Humidity: 61%   Direction: 290°WNW
Pressure: 30.1"   Gusts: 35mph
Location:  51.88°N, 176.66°W
Report Text: PADK 211356Z AUTO 29019G30KT 10SM SCT030 BKN036 06/M01 A3010 RMK AO1
Loading
Personal Weather Stations






























Interactive Weather Map
Tropical Storm Tracking
New forecast layout! Learn more

10-Day Weather Forecast

Advertisements
Track Severe Weather on mobile